sensor_id;sensor_type;location;lat;lon;timestamp;temperature;humidity
38866;DHT22;62686;48.984;8.394;2024-01-15T01:03:55;-1.40;99.90
38866;DHT22;62686;48.984;8.394;2024-01-15T01:06:24;-1.30;99.90
38866;DHT22;62686;48.984;8.394;2024-01-15T01:08:56;-1.30;99.90
38866;DHT22;62686;48.984;8.394;2024-01-15T01:11:27;-1.30;99.90
38866;DHT22;62686;48.984;8.394;2024-01-15T01:13:55;-1.30;99.90
38866;DHT22;62686;48.984;8.394;2024-01-15T01:16:24;-1.30;99.90
38866;DHT22;62686;48.984;8.394;2024-01-15T01:18:55;-1.30;99.90
38866;DHT22;62686;48.984;8.394;2024-01-15T01:21:24;-1.30;99.90
38866;DHT22;62686;48.984;8.394;2024-01-15T01:23:53;-1.30;99.90
38866;DHT22;62686;48.984;8.394;2024-01-15T01:26:23;-1.30;99.90
38866;DHT22;62686;48.984;8.394;2024-01-15T01:28:52;-1.30;99.90
38866;DHT22;62686;48.984;8.394;2024-01-15T01:31:20;-1.30;99.90
38866;DHT22;62686;48.984;8.394;2024-01-15T01:33:49;-1.30;99.90
38866;DHT22;62686;48.984;8.394;2024-01-15T01:36:19;-1.30;99.90
38866;DHT22;62686;48.984;8.394;2024-01-15T01:38:48;-1.30;99.90
38866;DHT22;62686;48.984;8.394;2024-01-15T01:41:16;-1.30;99.90
38866;DHT22;62686;48.984;8.394;2024-01-15T01:43:45;-1.30;99.90
38866;DHT22;62686;48.984;8.394;2024-01-15T01:46:14;-1.30;99.90
38866;DHT22;62686;48.984;8.394;2024-01-15T01:48:43;-1.20;99.90
38866;DHT22;62686;48.984;8.394;2024-01-15T01:51:12;-1.20;99.90
38866;DHT22;62686;48.984;8.394;2024-01-15T01:53:44;-1.20;99.90
38866;DHT22;62686;48.984;8.394;2024-01-15T01:56:14;-1.20;99.90
38866;DHT22;62686;48.984;8.394;2024-01-15T01:58:42;-1.20;99.90
38866;DHT22;62686;48.984;8.394;2024-01-15T02:01:12;-1.10;99.90
38866;DHT22;62686;48.984;8.394;2024-01-15T02:03:41;-1.10;99.90
38866;DHT22;62686;48.984;8.394;2024-01-15T02:06:10;-1.10;99.90
38866;DHT22;62686;48.984;8.394;2024-01-15T02:08:38;-1.00;99.90
38866;DHT22;62686;48.984;8.394;2024-01-15T02:11:09;-1.00;99.90
38866;DHT22;62686;48.984;8.394;2024-01-15T06:18:09;-1.00;99.90
38866;DHT22;62686;48.984;8.394;2024-01-15T07:12:48;-0.70;99.90
38866;DHT22;62686;48.984;8.394;2024-01-15T07:15:16;-0.70;99.90
38866;DHT22;62686;48.984;8.394;2024-01-15T07:17:45;-0.70;99.90
38866;DHT22;62686;48.984;8.394;2024-01-15T07:20:13;-0.70;99.90
38866;DHT22;62686;48.984;8.394;2024-01-15T07:22:42;-0.70;99.90
38866;DHT22;62686;48.984;8.394;2024-01-15T07:25:11;-0.70;99.90
38866;DHT22;62686;48.984;8.394;2024-01-15T07:27:39;-0.70;99.90
38866;DHT22;62686;48.984;8.394;2024-01-15T07:30:13;-0.70;99.90
38866;DHT22;62686;48.984;8.394;2024-01-15T07:32:42;-0.70;99.90
38866;DHT22;62686;48.984;8.394;2024-01-15T07:35:11;-0.60;99.90
38866;DHT22;62686;48.984;8.394;2024-01-15T07:37:39;-0.60;99.90
38866;DHT22;62686;48.984;8.394;2024-01-15T07:40:08;-0.60;99.90
38866;DHT22;62686;48.984;8.394;2024-01-15T07:42:39;-0.50;99.90
38866;DHT22;62686;48.984;8.394;2024-01-15T07:45:11;-0.50;99.90
38866;DHT22;62686;48.984;8.394;2024-01-15T07:47:40;-0.50;99.90
38866;DHT22;62686;48.984;8.394;2024-01-15T07:50:09;-0.50;99.90
38866;DHT22;62686;48.984;8.394;2024-01-15T07:52:38;-0.40;99.90
38866;DHT22;62686;48.984;8.394;2024-01-15T07:55:08;-0.40;99.90
38866;DHT22;62686;48.984;8.394;2024-01-15T07:57:37;-0.40;99.90
38866;DHT22;62686;48.984;8.394;2024-01-15T08:00:06;-0.40;99.90
38866;DHT22;62686;48.984;8.394;2024-01-15T08:02:37;-0.30;99.90
38866;DHT22;62686;48.984;8.394;2024-01-15T09:14:45;0.50;99.90
38866;DHT22;62686;48.984;8.394;2024-01-15T09:17:14;0.60;99.90
38866;DHT22;62686;48.984;8.394;2024-01-15T09:33:14;0.90;99.90
38866;DHT22;62686;48.984;8.394;2024-01-15T10:24:25;1.00;99.90
38866;DHT22;62686;48.984;8.394;2024-01-15T10:27:05;1.00;99.90
38866;DHT22;62686;48.984;8.394;2024-01-15T10:29:34;1.00;99.90
38866;DHT22;62686;48.984;8.394;2024-01-15T10:32:05;0.90;99.90
38866;DHT22;62686;48.984;8.394;2024-01-15T10:34:37;0.90;99.90
38866;DHT22;62686;48.984;8.394;2024-01-15T10:37:07;0.90;99.90
38866;DHT22;62686;48.984;8.394;2024-01-15T10:39:37;0.80;99.90
38866;DHT22;62686;48.984;8.394;2024-01-15T10:42:06;0.80;99.90
38866;DHT22;62686;48.984;8.394;2024-01-15T10:44:35;0.80;99.90
38866;DHT22;62686;48.984;8.394;2024-01-15T10:47:04;0.80;99.90
38866;DHT22;62686;48.984;8.394;2024-01-15T10:49:33;0.80;99.90
38866;DHT22;62686;48.984;8.394;2024-01-15T10:52:01;0.80;99.90
38866;DHT22;62686;48.984;8.394;2024-01-15T10:54:32;0.80;99.90
38866;DHT22;62686;48.984;8.394;2024-01-15T10:57:02;0.90;99.90
38866;DHT22;62686;48.984;8.394;2024-01-15T10:59:32;0.90;99.90
38866;DHT22;62686;48.984;8.394;2024-01-15T11:02:01;0.90;99.90
38866;DHT22;62686;48.984;8.394;2024-01-15T11:04:32;0.90;99.90
38866;DHT22;62686;48.984;8.394;2024-01-15T11:07:02;1.00;99.90
38866;DHT22;62686;48.984;8.394;2024-01-15T11:09:30;0.90;99.90
38866;DHT22;62686;48.984;8.394;2024-01-15T11:12:10;0.90;99.90
38866;DHT22;62686;48.984;8.394;2024-01-15T11:14:40;0.80;99.90
38866;DHT22;62686;48.984;8.394;2024-01-15T11:17:11;0.90;99.90
38866;DHT22;62686;48.984;8.394;2024-01-15T11:19:43;0.90;99.90
38866;DHT22;62686;48.984;8.394;2024-01-15T12:13:10;1.00;99.90
38866;DHT22;62686;48.984;8.394;2024-01-15T12:15:41;1.10;99.90
38866;DHT22;62686;48.984;8.394;2024-01-15T12:18:12;1.00;99.90
38866;DHT22;62686;48.984;8.394;2024-01-15T12:20:42;1.00;99.90
38866;DHT22;62686;48.984;8.394;2024-01-15T12:23:13;1.00;99.90
38866;DHT22;62686;48.984;8.394;2024-01-15T12:25:43;1.00;99.90
38866;DHT22;62686;48.984;8.394;2024-01-15T12:28:14;1.00;99.90
38866;DHT22;62686;48.984;8.394;2024-01-15T12:30:47;1.00;99.90
38866;DHT22;62686;48.984;8.394;2024-01-15T12:33:17;1.00;99.90
38866;DHT22;62686;48.984;8.394;2024-01-15T12:35:47;1.00;99.90
38866;DHT22;62686;48.984;8.394;2024-01-15T12:38:18;1.10;99.90
38866;DHT22;62686;48.984;8.394;2024-01-15T12:40:48;1.10;99.90
38866;DHT22;62686;48.984;8.394;2024-01-15T12:43:18;1.10;99.90
38866;DHT22;62686;48.984;8.394;2024-01-15T12:45:47;1.10;99.90
38866;DHT22;62686;48.984;8.394;2024-01-15T12:48:15;1.20;99.90
38866;DHT22;62686;48.984;8.394;2024-01-15T12:50:44;1.20;99.90
38866;DHT22;62686;48.984;8.394;2024-01-15T12:53:14;1.30;99.90
38866;DHT22;62686;48.984;8.394;2024-01-15T12:55:43;1.40;99.90
38866;DHT22;62686;48.984;8.394;2024-01-15T12:58:11;1.50;99.90
38866;DHT22;62686;48.984;8.394;2024-01-15T13:00:42;1.60;99.90
38866;DHT22;62686;48.984;8.394;2024-01-15T13:03:10;1.60;99.90
38866;DHT22;62686;48.984;8.394;2024-01-15T13:05:39;1.60;99.90
38866;DHT22;62686;48.984;8.394;2024-01-15T13:08:09;1.70;99.90
38866;DHT22;62686;48.984;8.394;2024-01-15T13:10:38;1.80;99.90
38866;DHT22;62686;48.984;8.394;2024-01-15T13:13:06;1.70;99.90
38866;DHT22;62686;48.984;8.394;2024-01-15T13:15:35;1.80;99.90
38866;DHT22;62686;48.984;8.394;2024-01-15T13:18:06;1.80;99.90
38866;DHT22;62686;48.984;8.394;2024-01-15T13:20:35;1.90;99.90
38866;DHT22;62686;48.984;8.394;2024-01-15T13:23:03;1.90;99.90
38866;DHT22;62686;48.984;8.394;2024-01-15T13:25:32;1.90;99.90
38866;DHT22;62686;48.984;8.394;2024-01-15T13:28:03;1.90;99.90
38866;DHT22;62686;48.984;8.394;2024-01-15T13:30:31;1.90;99.90
38866;DHT22;62686;48.984;8.394;2024-01-15T13:33:00;1.80;99.90
38866;DHT22;62686;48.984;8.394;2024-01-15T13:35:33;1.90;99.90
38866;DHT22;62686;48.984;8.394;2024-01-15T13:38:02;1.90;99.90
38866;DHT22;62686;48.984;8.394;2024-01-15T13:40:31;1.90;99.90
38866;DHT22;62686;48.984;8.394;2024-01-15T13:42:59;1.90;99.90
38866;DHT22;62686;48.984;8.394;2024-01-15T13:45:30;1.90;99.90
38866;DHT22;62686;48.984;8.394;2024-01-15T13:47:59;1.80;99.90
38866;DHT22;62686;48.984;8.394;2024-01-15T13:50:27;1.80;99.90
38866;DHT22;62686;48.984;8.394;2024-01-15T13:52:57;1.80;99.90
38866;DHT22;62686;48.984;8.394;2024-01-15T13:55:25;1.60;99.90
38866;DHT22;62686;48.984;8.394;2024-01-15T13:57:54;1.60;99.90
38866;DHT22;62686;48.984;8.394;2024-01-15T14:00:22;1.60;99.90
38866;DHT22;62686;48.984;8.394;2024-01-15T14:02:51;1.60;99.90
38866;DHT22;62686;48.984;8.394;2024-01-15T14:05:19;1.60;99.90
38866;DHT22;62686;48.984;8.394;2024-01-15T14:07:48;1.60;99.90
38866;DHT22;62686;48.984;8.394;2024-01-15T14:10:18;1.60;99.90
38866;DHT22;62686;48.984;8.394;2024-01-15T14:12:47;1.70;99.90
38866;DHT22;62686;48.984;8.394;2024-01-15T14:15:15;1.70;99.90
38866;DHT22;62686;48.984;8.394;2024-01-15T14:17:44;1.70;99.90
38866;DHT22;62686;48.984;8.394;2024-01-15T14:20:12;1.70;99.90
38866;DHT22;62686;48.984;8.394;2024-01-15T14:22:41;1.80;99.90
38866;DHT22;62686;48.984;8.394;2024-01-15T14:25:10;1.80;99.90
38866;DHT22;62686;48.984;8.394;2024-01-15T14:27:39;1.80;99.90
38866;DHT22;62686;48.984;8.394;2024-01-15T14:30:09;1.70;99.90
38866;DHT22;62686;48.984;8.394;2024-01-15T14:32:39;1.70;99.90
38866;DHT22;62686;48.984;8.394;2024-01-15T14:35:08;1.70;99.90
38866;DHT22;62686;48.984;8.394;2024-01-15T14:37:37;1.70;99.90
38866;DHT22;62686;48.984;8.394;2024-01-15T14:40:07;1.70;99.90
38866;DHT22;62686;48.984;8.394;2024-01-15T14:42:38;1.70;99.90
38866;DHT22;62686;48.984;8.394;2024-01-15T14:45:09;1.70;99.90
38866;DHT22;62686;48.984;8.394;2024-01-15T14:47:40;1.70;99.90
38866;DHT22;62686;48.984;8.394;2024-01-15T14:50:09;1.60;99.90
38866;DHT22;62686;48.984;8.394;2024-01-15T14:52:39;1.60;99.90
38866;DHT22;62686;48.984;8.394;2024-01-15T14:55:09;1.50;99.90
38866;DHT22;62686;48.984;8.394;2024-01-15T14:57:39;1.50;99.90
38866;DHT22;62686;48.984;8.394;2024-01-15T15:00:08;1.40;99.90
38866;DHT22;62686;48.984;8.394;2024-01-15T15:02:36;1.40;99.90
38866;DHT22;62686;48.984;8.394;2024-01-15T15:05:06;1.40;99.90
38866;DHT22;62686;48.984;8.394;2024-01-15T15:07:35;1.40;99.90
38866;DHT22;62686;48.984;8.394;2024-01-15T15:10:04;1.40;99.90
38866;DHT22;62686;48.984;8.394;2024-01-15T15:12:34;1.40;99.90
38866;DHT22;62686;48.984;8.394;2024-01-15T15:15:04;1.40;99.90
38866;DHT22;62686;48.984;8.394;2024-01-15T15:17:34;1.30;99.90
38866;DHT22;62686;48.984;8.394;2024-01-15T15:20:04;1.30;99.90
38866;DHT22;62686;48.984;8.394;2024-01-15T15:22:33;1.30;99.90
38866;DHT22;62686;48.984;8.394;2024-01-15T15:27:44;1.30;99.90
38866;DHT22;62686;48.984;8.394;2024-01-15T15:30:15;1.30;99.90
38866;DHT22;62686;48.984;8.394;2024-01-15T15:32:44;1.20;99.90
38866;DHT22;62686;48.984;8.394;2024-01-15T15:35:12;1.20;99.90
38866;DHT22;62686;48.984;8.394;2024-01-15T15:37:41;1.20;99.90
38866;DHT22;62686;48.984;8.394;2024-01-15T15:40:10;1.10;99.90
38866;DHT22;62686;48.984;8.394;2024-01-15T15:42:40;1.10;99.90
38866;DHT22;62686;48.984;8.394;2024-01-15T15:45:09;1.10;99.90
38866;DHT22;62686;48.984;8.394;2024-01-15T15:47:39;1.10;99.90
38866;DHT22;62686;48.984;8.394;2024-01-15T15:50:08;1.10;99.90
38866;DHT22;62686;48.984;8.394;2024-01-15T15:52:37;1.10;99.90
38866;DHT22;62686;48.984;8.394;2024-01-15T15:55:05;1.10;99.90
38866;DHT22;62686;48.984;8.394;2024-01-15T15:57:35;1.10;99.90
38866;DHT22;62686;48.984;8.394;2024-01-15T16:02:41;1.00;99.90
38866;DHT22;62686;48.984;8.394;2024-01-15T16:05:10;1.10;99.90
38866;DHT22;62686;48.984;8.394;2024-01-15T16:07:38;1.00;99.90
38866;DHT22;62686;48.984;8.394;2024-01-15T16:10:08;1.00;99.90
38866;DHT22;62686;48.984;8.394;2024-01-15T16:15:21;1.00;99.90
38866;DHT22;62686;48.984;8.394;2024-01-15T17:24:19;0.40;99.90
38866;DHT22;62686;48.984;8.394;2024-01-15T17:26:48;0.30;99.90
38866;DHT22;62686;48.984;8.394;2024-01-15T17:29:17;0.20;99.90
38866;DHT22;62686;48.984;8.394;2024-01-15T17:31:47;0.10;99.90
38866;DHT22;62686;48.984;8.394;2024-01-15T17:34:16;0.10;99.90
38866;DHT22;62686;48.984;8.394;2024-01-15T17:36:44;0.00;99.90
38866;DHT22;62686;48.984;8.394;2024-01-15T17:39:13;0.00;99.90
38866;DHT22;62686;48.984;8.394;2024-01-15T17:41:47;0.20;99.90
38866;DHT22;62686;48.984;8.394;2024-01-15T17:44:16;0.30;99.90
38866;DHT22;62686;48.984;8.394;2024-01-15T17:46:44;0.50;99.90
38866;DHT22;62686;48.984;8.394;2024-01-15T17:49:13;0.60;99.90
38866;DHT22;62686;48.984;8.394;2024-01-15T17:51:41;0.60;99.90
38866;DHT22;62686;48.984;8.394;2024-01-15T17:54:10;0.70;99.90
38866;DHT22;62686;48.984;8.394;2024-01-15T17:56:38;0.70;99.90
38866;DHT22;62686;48.984;8.394;2024-01-15T17:59:08;0.80;99.90
38866;DHT22;62686;48.984;8.394;2024-01-15T18:01:37;0.80;99.90
38866;DHT22;62686;48.984;8.394;2024-01-15T18:04:08;0.90;99.90
38866;DHT22;62686;48.984;8.394;2024-01-15T18:06:39;0.80;99.90
38866;DHT22;62686;48.984;8.394;2024-01-15T18:09:08;0.90;99.90
38866;DHT22;62686;48.984;8.394;2024-01-15T18:11:36;0.90;99.90
38866;DHT22;62686;48.984;8.394;2024-01-15T18:14:05;1.00;99.90
38866;DHT22;62686;48.984;8.394;2024-01-15T18:16:35;1.00;99.90
38866;DHT22;62686;48.984;8.394;2024-01-15T18:19:04;1.00;99.90
38866;DHT22;62686;48.984;8.394;2024-01-15T18:21:32;1.00;99.90
38866;DHT22;62686;48.984;8.394;2024-01-15T18:24:01;1.00;99.90
38866;DHT22;62686;48.984;8.394;2024-01-15T18:26:29;1.00;99.90
38866;DHT22;62686;48.984;8.394;2024-01-15T18:28:58;1.00;99.90
38866;DHT22;62686;48.984;8.394;2024-01-15T18:31:26;1.00;99.90
38866;DHT22;62686;48.984;8.394;2024-01-15T18:33:56;0.90;99.90
38866;DHT22;62686;48.984;8.394;2024-01-15T18:36:25;1.00;99.90
38866;DHT22;62686;48.984;8.394;2024-01-15T18:38:54;1.00;99.90
38866;DHT22;62686;48.984;8.394;2024-01-15T18:41:24;0.90;99.90
38866;DHT22;62686;48.984;8.394;2024-01-15T18:43:52;0.90;99.90
38866;DHT22;62686;48.984;8.394;2024-01-15T18:46:21;0.90;99.90
38866;DHT22;62686;48.984;8.394;2024-01-15T18:48:49;1.00;99.90
38866;DHT22;62686;48.984;8.394;2024-01-15T18:51:23;0.90;99.90
38866;DHT22;62686;48.984;8.394;2024-01-15T18:53:51;1.00;99.90
38866;DHT22;62686;48.984;8.394;2024-01-15T18:56:20;0.90;99.90
38866;DHT22;62686;48.984;8.394;2024-01-15T18:58:49;0.90;99.90
38866;DHT22;62686;48.984;8.394;2024-01-15T19:01:25;0.90;99.90
38866;DHT22;62686;48.984;8.394;2024-01-15T19:03:55;0.90;99.90
38866;DHT22;62686;48.984;8.394;2024-01-15T19:06:25;0.90;99.90
38866;DHT22;62686;48.984;8.394;2024-01-15T19:08:54;0.90;99.90
38866;DHT22;62686;48.984;8.394;2024-01-15T19:11:23;0.80;99.90
38866;DHT22;62686;48.984;8.394;2024-01-15T19:13:53;0.80;99.90
38866;DHT22;62686;48.984;8.394;2024-01-15T19:16:21;0.70;99.90
38866;DHT22;62686;48.984;8.394;2024-01-15T19:18:50;0.70;99.90
38866;DHT22;62686;48.984;8.394;2024-01-15T19:21:19;0.80;99.90
38866;DHT22;62686;48.984;8.394;2024-01-15T19:23:49;0.80;99.90
38866;DHT22;62686;48.984;8.394;2024-01-15T19:26:18;0.80;99.90
38866;DHT22;62686;48.984;8.394;2024-01-15T19:28:47;0.80;99.90
38866;DHT22;62686;48.984;8.394;2024-01-15T19:31:16;0.80;99.90
38866;DHT22;62686;48.984;8.394;2024-01-15T19:33:46;0.70;99.90
38866;DHT22;62686;48.984;8.394;2024-01-15T19:36:25;0.70;99.90
38866;DHT22;62686;48.984;8.394;2024-01-15T19:38:55;0.70;99.90
38866;DHT22;62686;48.984;8.394;2024-01-15T19:41:24;0.70;99.90
38866;DHT22;62686;48.984;8.394;2024-01-15T19:43:52;0.70;99.90
38866;DHT22;62686;48.984;8.394;2024-01-15T22:05:46;0.10;99.90
